Time;durP1;ratioP1;P1;durP2;ratioP2;P2;SDS_P1;SDS_P2;PMS_P1;PMS_P2;Temp;Humidity;BMP_temperature;BMP_pressure;BME280_temperature;BME280_humidity;BME280_pressure;Samples;Min_cycle;Max_cycle;Signal;HPM_P1;HPM_P2
2021/11/14 00:01:29;;;;;;;20.60;11.55;;;;;;;-142.75;100.00;77452.25;5023577;28;20033;-66
2021/11/14 00:03:55;;;;;;;19.73;11.88;;;;;;;-142.75;100.00;77456.22;5023777;28;20037;-66
2021/11/14 00:06:20;;;;;;;22.33;13.32;;;;;;;-142.75;100.00;77452.25;5025029;28;20040;-65
2021/11/14 00:08:47;;;;;;;22.23;13.63;;;;;;;-142.75;100.00;77454.25;5029162;28;20377;-65
2021/11/14 00:11:15;;;;;;;23.02;13.50;;;;;;;-142.75;100.00;77460.13;5024065;28;20107;-68
2021/11/14 00:13:42;;;;;;;18.55;12.13;;;;;;;-142.75;100.00;77471.97;5027764;28;20022;-67
2021/11/14 00:16:10;;;;;;;20.67;12.77;;;;;;;-142.75;100.00;77466.03;5027852;28;20040;-68
2021/11/14 00:18:37;;;;;;;21.02;12.18;;;;;;;-142.75;100.00;77456.22;5010906;28;20033;-68
2021/11/14 00:21:02;;;;;;;22.92;14.52;;;;;;;-142.75;100.00;77456.22;5028114;28;20037;-67
2021/11/14 00:23:28;;;;;;;24.77;15.05;;;;;;;-142.75;100.00;77448.34;5028940;28;20033;-68
2021/11/14 00:25:53;;;;;;;29.35;15.88;;;;;;;-142.75;100.00;77446.34;5027515;28;20025;-68
2021/11/14 00:28:18;;;;;;;26.85;14.50;;;;;;;-142.75;100.00;77440.44;5027712;28;20403;-68
2021/11/14 00:30:44;;;;;;;28.50;14.90;;;;;;;-142.75;100.00;77436.50;5027273;28;20479;-68
2021/11/14 00:33:11;;;;;;;24.50;15.25;;;;;;;-142.75;100.00;77448.34;5028490;28;20025;-68
2021/11/14 00:35:38;;;;;;;21.70;12.77;;;;;;;-142.75;100.00;77450.28;5028564;28;21118;-68
2021/11/14 00:38:03;;;;;;;26.52;12.93;;;;;;;-142.75;100.00;77446.34;5028850;28;20386;-68
2021/11/14 00:40:32;;;;;;;23.00;11.85;;;;;;;-142.75;100.00;77458.16;5027704;28;20033;-68
2021/11/14 00:42:58;;;;;;;20.40;10.52;;;;;;;-142.75;100.00;77464.09;5027386;28;20033;-68
2021/11/14 00:45:25;;;;;;;22.30;10.82;;;;;;;-142.75;100.00;77456.22;5027003;28;20403;-68
2021/11/14 00:47:50;;;;;;;25.50;11.10;;;;;;;-142.75;100.00;77454.25;5027590;28;20066;-66
2021/11/14 00:50:16;;;;;;;22.23;10.82;;;;;;;-142.75;100.00;77466.03;5026594;28;20455;-65
2021/11/14 00:52:43;;;;;;;18.70;10.88;;;;;;;-142.75;100.00;77470.00;5027134;28;20691;-65
2021/11/14 00:55:13;;;;;;;18.17;10.43;;;;;;;-142.75;100.00;77471.97;5027450;28;20036;-68
2021/11/14 00:57:39;;;;;;;18.63;10.70;;;;;;;-142.75;100.00;77479.84;5028115;28;20033;-68
2021/11/14 01:00:09;;;;;;;14.27;9.63;;;;;;;-142.75;100.00;77483.78;5027482;28;20529;-68
2021/11/14 01:02:35;;;;;;;15.68;10.20;;;;;;;-142.75;100.00;77487.72;5028346;28;20032;-68
2021/11/14 01:05:00;;;;;;;17.38;10.57;;;;;;;-142.75;100.00;77493.63;5028161;28;20033;-68
2021/11/14 01:07:26;;;;;;;;;;;;;;;-142.75;100.00;77503.47;5028318;28;20029;-68
2021/11/14 01:09:51;;;;;;;17.08;9.82;;;;;;;-142.75;100.00;77513.31;5025577;28;19923;-65
2021/11/14 01:12:16;;;;;;;18.15;10.88;;;;;;;-142.75;100.00;77515.28;5028696;28;20033;-65
2021/11/14 01:14:42;;;;;;;17.25;11.23;;;;;;;-142.75;100.00;77511.34;5028135;28;20059;-65
2021/11/14 01:17:07;;;;;;;23.00;12.88;;;;;;;-142.75;100.00;77523.16;5029133;28;20112;-65
2021/11/14 01:19:32;;;;;;;20.17;11.13;;;;;;;-142.75;100.00;77517.25;5026686;28;20060;-65
2021/11/14 01:21:58;;;;;;;18.10;11.53;;;;;;;-142.75;100.00;77511.34;5027090;28;20083;-65
2021/11/14 01:24:23;;;;;;;22.73;12.40;;;;;;;-142.75;100.00;77527.09;5027997;28;20704;-65
2021/11/14 01:26:49;;;;;;;15.43;10.35;;;;;;;-142.75;100.00;77525.13;5027825;28;20053;-66
2021/11/14 01:29:14;;;;;;;22.30;12.65;;;;;;;-142.75;100.00;77523.16;5028212;28;20033;-65
2021/11/14 01:31:39;;;;;;;24.83;12.70;;;;;;;-142.75;100.00;77503.47;5027065;28;20041;-65
2021/11/14 01:34:05;;;;;;;18.52;11.25;;;;;;;-142.75;100.00;77505.44;5027425;28;20033;-66
2021/11/14 01:36:33;;;;;;;22.15;11.45;;;;;;;-142.75;100.00;77509.38;5027831;28;20026;-65
2021/11/14 01:39:00;;;;;;;17.90;11.20;;;;;;;-142.75;100.00;77505.44;5044208;28;20071;-65
2021/11/14 01:41:26;;;;;;;20.60;12.68;;;;;;;-142.75;100.00;77507.41;5046232;28;20498;-65
2021/11/14 01:43:52;;;;;;;19.95;12.10;;;;;;;-142.75;100.00;77515.28;5063181;22;20045;-68
2021/11/14 01:46:19;;;;;;;21.98;12.13;;;;;;;-142.75;100.00;77519.22;5049355;28;20036;-68
2021/11/14 01:48:47;;;;;;;20.25;12.20;;;;;;;-142.75;100.00;77533.00;5049364;28;20467;-66
2021/11/14 01:51:13;;;;;;;19.48;11.90;;;;;;;-142.75;100.00;77527.09;5030137;28;20023;-67
2021/11/14 01:53:40;;;;;;;20.17;13.15;;;;;;;-142.75;100.00;77511.34;5038645;28;20131;-68
2021/11/14 01:56:11;;;;;;;18.85;11.75;;;;;;;-142.75;100.00;77525.13;5030413;28;20104;-68
2021/11/14 01:58:37;;;;;;;21.35;12.57;;;;;;;-142.75;100.00;77546.78;5030071;28;20028;-68
2021/11/14 02:01:06;;;;;;;;;;;;;;;-142.75;100.00;77542.84;5033283;28;20039;-68
2021/11/14 02:03:32;;;;;;;24.38;13.18;;;;;;;-142.75;100.00;77548.75;5035890;28;20333;-70
2021/11/14 02:06:00;;;;;;;22.83;13.32;;;;;;;-142.75;100.00;77538.91;5043133;28;20115;-68
2021/11/14 02:08:26;;;;;;;27.92;14.25;;;;;;;-142.75;100.00;77531.03;5032098;28;20033;-68
2021/11/14 02:10:51;;;;;;;23.88;14.40;;;;;;;-142.75;100.00;77525.13;5019507;28;20083;-68
2021/11/14 02:13:18;;;;;;;28.95;16.48;;;;;;;-142.75;100.00;77531.03;5037648;28;20033;-70
2021/11/14 02:15:44;;;;;;;29.02;16.42;;;;;;;-142.75;100.00;77538.91;5021227;28;20094;-69
2021/11/14 02:18:13;;;;;;;29.38;16.27;;;;;;;-142.75;100.00;77538.91;5030810;28;20480;-70
2021/11/14 02:20:39;;;;;;;28.48;16.38;;;;;;;-142.75;100.00;77548.75;5032689;28;20063;-70
2021/11/14 02:23:06;;;;;;;30.73;17.13;;;;;;;-142.75;100.00;77540.88;5042305;28;20104;-68
2021/11/14 02:25:32;;;;;;;31.65;17.13;;;;;;;-142.75;100.00;77548.75;5024296;28;20115;-69
2021/11/14 02:27:58;;;;;;;;;;;;;;;-142.75;100.00;77552.69;5040127;28;20104;-69
2021/11/14 02:30:24;;;;;;;27.52;16.90;;;;;;;-142.75;100.00;77552.69;5034432;28;20008;-69
2021/11/14 02:32:51;;;;;;;33.47;18.75;;;;;;;-142.75;100.00;77550.72;5024510;28;20021;-68
2021/11/14 02:35:17;;;;;;;30.10;17.70;;;;;;;-142.75;100.00;77550.72;5037637;28;20036;-69
2021/11/14 02:37:43;;;;;;;27.23;17.00;;;;;;;-142.75;100.00;77560.56;5038153;28;20018;-70
2021/11/14 02:40:09;;;;;;;30.88;17.48;;;;;;;-142.75;100.00;77566.47;5026781;28;20083;-70
2021/11/14 02:42:35;;;;;;;35.50;18.45;;;;;;;-142.75;100.00;77564.50;5036902;28;20639;-71
2021/11/14 02:45:01;;;;;;;35.38;19.65;;;;;;;-142.75;100.00;77564.50;5023114;28;20132;-69
2021/11/14 02:47:27;;;;;;;29.42;18.02;;;;;;;-142.75;100.00;77566.47;5030984;28;20065;-70
2021/11/14 02:49:52;;;;;;;35.45;18.15;;;;;;;-142.75;100.00;77564.50;5045897;28;20021;-70
2021/11/14 02:52:18;;;;;;;35.67;19.73;;;;;;;-142.75;100.00;77562.53;5035455;28;20087;-71
2021/11/14 02:54:43;;;;;;;33.20;19.52;;;;;;;-142.75;100.00;77566.47;5017780;28;20111;-69
2021/11/14 02:57:09;;;;;;;29.23;19.27;;;;;;;-142.75;100.00;77582.22;5040950;28;20017;-69
2021/11/14 02:59:34;;;;;;;31.80;18.85;;;;;;;-142.75;100.00;77586.16;5024361;28;20025;-71
2021/11/14 03:02:00;;;;;;;32.95;19.50;;;;;;;-142.75;100.00;77580.25;5038612;28;20021;-69
2021/11/14 03:04:28;;;;;;;30.60;17.75;;;;;;;-142.75;100.00;77570.41;5041314;28;20096;-70
2021/11/14 03:06:55;;;;;;;29.60;17.58;;;;;;;-142.75;100.00;77574.34;5017652;28;20452;-69
2021/11/14 03:09:22;;;;;;;31.60;18.02;;;;;;;-142.75;100.00;77570.41;5034063;28;20075;-67
2021/11/14 03:11:49;;;;;;;26.73;17.45;;;;;;;-142.75;100.00;77572.38;5039477;28;20066;-69
2021/11/14 03:14:14;;;;;;;31.67;17.48;;;;;;;-142.75;100.00;77568.44;5017230;28;20082;-67
2021/11/14 03:16:40;;;;;;;25.45;17.23;;;;;;;-142.75;100.00;77558.59;5037123;28;20025;-69
2021/11/14 03:19:06;;;;;;;30.05;16.33;;;;;;;-142.75;100.00;77568.44;5035404;28;20490;-69
2021/11/14 03:21:31;;;;;;;;;;;;;;;-142.75;100.00;77566.47;5028906;28;20506;-72
2021/11/14 03:23:57;;;;;;;26.48;17.08;;;;;;;-142.75;100.00;77558.59;5027756;28;19952;-69
2021/11/14 03:26:23;;;;;;;30.20;16.92;;;;;;;-142.75;100.00;77558.59;5041131;28;20017;-68
2021/11/14 03:28:49;;;;;;;27.08;16.98;;;;;;;-142.75;100.00;77560.56;5040539;28;20036;-67
2021/11/14 03:31:14;;;;;;;27.45;17.25;;;;;;;-142.75;100.00;77548.75;5020854;28;20033;-68
2021/11/14 03:33:41;;;;;;;28.02;17.73;;;;;;;-142.75;100.00;77554.66;5039435;28;20029;-68
2021/11/14 03:36:09;;;;;;;28.30;17.48;;;;;;;-142.75;100.00;77554.66;5039171;28;20030;-67
2021/11/14 03:38:43;;;;;;;29.60;17.67;;;;;;;-142.75;100.00;77554.66;5018194;28;20030;-69
2021/11/14 03:41:11;;;;;;;28.25;18.05;;;;;;;-142.75;100.00;77574.34;5033344;28;20037;-69
2021/11/14 03:43:38;;;;;;;30.25;18.65;;;;;;;-142.75;100.00;77576.31;5038283;28;21931;-69
2021/11/14 03:46:04;;;;;;;33.63;18.90;;;;;;;-142.75;100.00;77564.50;5038999;28;20037;-70
2021/11/14 03:48:30;;;;;;;29.38;18.92;;;;;;;-142.75;100.00;77576.31;5038428;28;20113;-68
2021/11/14 03:50:56;;;;;;;30.90;18.30;;;;;;;-142.75;100.00;77572.38;5023883;28;20116;-70
2021/11/14 03:53:22;;;;;;;31.58;18.65;;;;;;;-142.75;100.00;77570.41;5042531;28;20037;-67
2021/11/14 03:55:50;;;;;;;29.88;17.50;;;;;;;-142.75;100.00;77548.75;5027293;28;20032;-69
2021/11/14 03:58:16;;;;;;;35.78;18.63;;;;;;;-142.75;100.00;77550.72;5024947;28;20046;-67
2021/11/14 04:00:45;;;;;;;30.67;18.42;;;;;;;-142.75;100.00;77566.47;5017947;28;20052;-69
2021/11/14 04:03:12;;;;;;;31.20;18.17;;;;;;;-142.75;100.00;77570.41;5017306;28;20060;-69
2021/11/14 04:05:38;;;;;;;30.27;17.88;;;;;;;-142.75;100.00;77594.03;5044152;28;20056;-69
2021/11/14 04:08:09;;;;;;;33.80;18.90;;;;;;;-142.75;100.00;77611.75;5043969;28;20037;-68
2021/11/14 04:10:35;;;;;;;32.60;17.38;;;;;;;-142.75;100.00;77596.00;5039309;28;20021;-69
2021/11/14 04:13:00;;;;;;;29.10;18.42;;;;;;;-142.75;100.00;77594.03;5044914;28;20570;-68
2021/11/14 04:15:26;;;;;;;32.58;18.65;;;;;;;-142.75;100.00;77594.03;5042158;28;20108;-69
2021/11/14 04:17:55;;;;;;;35.15;19.35;;;;;;;-142.75;100.00;77603.88;5023605;28;20026;-69
2021/11/14 04:20:25;;;;;;;32.72;18.48;;;;;;;-142.75;100.00;77621.59;5041193;28;20025;-67
2021/11/14 04:22:51;;;;;;;30.75;19.35;;;;;;;-142.75;100.00;77623.56;5022581;28;20018;-68
2021/11/14 04:25:17;;;;;;;29.95;18.65;;;;;;;-142.75;100.00;77611.75;5021642;28;20024;-68
2021/11/14 04:27:42;;;;;;;28.10;18.30;;;;;;;-142.75;100.00;77621.59;5037556;28;20100;-69
2021/11/14 04:30:08;;;;;;;27.17;17.23;;;;;;;-142.75;100.00;77625.53;5037053;28;20118;-69
2021/11/14 04:32:33;;;;;;;29.02;18.50;;;;;;;-142.75;100.00;77647.19;5018448;28;20056;-69
2021/11/14 04:34:59;;;;;;;35.00;18.83;;;;;;;-142.75;100.00;77653.09;5028579;28;20063;-70
2021/11/14 04:37:24;;;;;;;29.35;17.90;;;;;;;-142.75;100.00;77633.41;5038623;28;20021;-68
2021/11/14 04:39:49;;;;;;;30.52;17.67;;;;;;;-142.75;100.00;77645.22;5021420;28;20028;-68
2021/11/14 04:42:15;;;;;;;29.90;17.33;;;;;;;-142.75;100.00;77641.28;5040585;28;20552;-68
2021/11/14 04:44:40;;;;;;;28.35;17.80;;;;;;;-142.75;100.00;77645.22;5042859;28;20040;-69
2021/11/14 04:47:05;;;;;;;30.65;17.92;;;;;;;-142.75;100.00;77647.19;5028000;28;20096;-68
2021/11/14 04:49:31;;;;;;;27.98;17.73;;;;;;;-142.75;100.00;77629.47;5040632;28;20048;-68
2021/11/14 04:51:56;;;;;;;29.80;17.52;;;;;;;-142.75;100.00;77645.22;5042154;28;20418;-68
2021/11/14 04:54:22;;;;;;;31.70;17.63;;;;;;;-142.75;100.00;77655.06;5022287;28;20394;-68
2021/11/14 04:56:48;;;;;;;32.38;18.65;;;;;;;-142.75;100.00;77653.09;5014187;28;20386;-69
2021/11/14 04:59:14;;;;;;;30.95;18.10;;;;;;;-142.75;100.00;77657.03;5021051;28;20036;-69
2021/11/14 05:01:40;;;;;;;30.92;18.58;;;;;;;-142.75;100.00;77659.00;5040898;28;20033;-69
2021/11/14 05:04:06;;;;;;;30.70;17.15;;;;;;;-142.75;100.00;77649.16;5039413;28;20036;-68
2021/11/14 05:06:32;;;;;;;28.08;17.50;;;;;;;-142.75;100.00;77657.03;5046445;28;20394;-69
2021/11/14 05:08:59;;;;;;;29.95;17.33;;;;;;;-142.75;100.00;77668.84;5044217;28;20037;-68
2021/11/14 05:11:25;;;;;;;30.58;17.70;;;;;;;-142.75;100.00;77664.91;5025743;28;20079;-68
2021/11/14 05:13:50;;;;;;;29.10;17.13;;;;;;;-142.75;100.00;77676.72;5018173;28;20039;-68
2021/11/14 05:16:16;;;;;;;29.35;16.60;;;;;;;-142.75;100.00;77682.63;5042764;28;20517;-69
2021/11/14 05:18:41;;;;;;;29.30;17.10;;;;;;;-142.75;100.00;77686.56;5045141;28;20487;-69
2021/11/14 05:21:07;;;;;;;32.35;16.75;;;;;;;-142.75;100.00;77684.59;5033614;28;20467;-69
2021/11/14 05:23:33;;;;;;;25.65;15.45;;;;;;;-142.75;100.00;77700.34;5024670;28;20032;-68
2021/11/14 05:25:58;;;;;;;27.77;16.05;;;;;;;-142.75;100.00;77700.34;5023007;28;20107;-69
2021/11/14 05:28:24;;;;;;;26.65;14.77;;;;;;;-142.75;100.00;77698.38;5034590;28;20129;-69
2021/11/14 05:30:49;;;;;;;27.50;15.75;;;;;;;-142.75;100.00;77710.19;5026618;28;20028;-67
2021/11/14 05:33:15;;;;;;;27.17;16.15;;;;;;;-142.75;100.00;77708.22;5042629;28;20376;-68
2021/11/14 05:35:41;;;;;;;30.02;17.77;;;;;;;-142.75;100.00;77702.31;5035456;28;20040;-69
2021/11/14 05:38:07;;;;;;;25.52;16.67;;;;;;;-142.75;100.00;77706.25;5016723;28;20021;-68
2021/11/14 05:40:33;;;;;;;27.15;15.80;;;;;;;-142.75;100.00;77718.06;5042699;28;20041;-69
2021/11/14 05:42:58;;;;;;;27.33;16.90;;;;;;;-142.75;100.00;77718.06;5040879;28;20491;-68
2021/11/14 05:45:24;;;;;;;23.63;15.88;;;;;;;-142.75;100.00;77727.94;5018833;28;20033;-71
2021/11/14 05:47:50;;;;;;;28.33;15.57;;;;;;;-142.75;100.00;77716.09;5026654;28;20489;-68
2021/11/14 05:50:16;;;;;;;21.75;14.15;;;;;;;-142.75;100.00;77729.88;5034585;28;20025;-70
2021/11/14 05:52:41;;;;;;;24.35;14.23;;;;;;;-142.75;100.00;77735.81;5036496;28;20048;-70
2021/11/14 05:55:09;;;;;;;30.10;15.23;;;;;;;-142.75;100.00;77745.66;5036632;28;20025;-70
2021/11/14 05:57:47;;;;;;;27.13;14.75;;;;;;;-142.75;100.00;77767.31;5035933;28;20029;-68
2021/11/14 06:00:19;;;;;;;22.85;15.07;;;;;;;-142.75;100.00;77763.38;5035665;28;20030;-69
2021/11/14 06:02:52;;;;;;;24.33;14.25;;;;;;;-142.75;100.00;77759.44;5041077;28;20116;-69
2021/11/14 06:05:18;;;;;;;26.60;15.32;;;;;;;-142.75;100.00;77755.50;5038478;28;20029;-68
2021/11/14 06:07:46;;;;;;;25.98;15.38;;;;;;;-142.75;100.00;77763.38;5042758;28;20040;-70
2021/11/14 06:10:13;;;;;;;25.38;14.82;;;;;;;-142.75;100.00;77763.38;5037635;28;20380;-69
2021/11/14 06:12:39;;;;;;;26.50;14.82;;;;;;;-142.75;100.00;77773.22;5031447;28;20029;-69
2021/11/14 06:15:11;;;;;;;26.77;15.65;;;;;;;-142.75;100.00;77787.00;5039962;28;20032;-67
2021/11/14 06:17:36;;;;;;;27.73;16.55;;;;;;;-142.75;100.00;77787.00;5028327;28;20025;-70
2021/11/14 06:20:04;;;;;;;30.75;17.08;;;;;;;-142.75;100.00;77788.97;5021821;28;20031;-68
2021/11/14 06:22:29;;;;;;;28.05;16.52;;;;;;;-142.75;100.00;77800.78;5041484;28;20027;-69
2021/11/14 06:24:55;;;;;;;30.83;17.95;;;;;;;-142.75;100.00;77792.91;5015194;28;20021;-68
2021/11/14 06:27:20;;;;;;;29.13;16.50;;;;;;;-142.75;100.00;77800.78;5044177;28;20021;-67
2021/11/14 06:29:45;;;;;;;32.92;17.15;;;;;;;-142.75;100.00;77798.81;5023077;28;20036;-68
2021/11/14 06:32:11;;;;;;;30.10;16.50;;;;;;;-142.75;100.00;77804.72;5022198;28;20560;-70
2021/11/14 06:34:36;;;;;;;30.27;17.13;;;;;;;-142.75;100.00;77800.78;5036976;28;20026;-70
2021/11/14 06:37:03;;;;;;;33.72;17.10;;;;;;;-142.75;100.00;77796.84;5039291;28;20021;-71
2021/11/14 06:39:28;;;;;;;32.13;18.17;;;;;;;-142.75;100.00;77804.72;5038400;28;20025;-70
2021/11/14 06:41:53;;;;;;;32.97;18.25;;;;;;;-142.75;100.00;77820.47;5039839;28;20035;-70
2021/11/14 06:44:19;;;;;;;30.03;18.23;;;;;;;-142.75;100.00;77826.38;5019281;28;20028;-68
2021/11/14 06:46:44;;;;;;;32.25;18.35;;;;;;;-142.75;100.00;77842.13;5036205;28;20786;-68
2021/11/14 06:49:09;;;;;;;31.33;18.13;;;;;;;-142.75;100.00;77842.13;5022658;28;20116;-69
2021/11/14 06:51:35;;;;;;;34.10;17.63;;;;;;;-142.75;100.00;77832.28;5035739;28;20017;-69
2021/11/14 06:54:00;;;;;;;32.72;18.92;;;;;;;-142.75;100.00;77836.22;5040475;28;20545;-70
2021/11/14 06:56:26;;;;;;;32.92;18.30;;;;;;;-142.75;100.00;77855.91;5040554;28;20399;-69
2021/11/14 06:58:51;;;;;;;31.48;18.15;;;;;;;-142.75;100.00;77853.94;5014590;28;20034;-69
2021/11/14 07:01:16;;;;;;;32.45;17.40;;;;;;;-142.75;100.00;77857.88;5035916;28;20033;-68
2021/11/14 07:03:42;;;;;;;35.72;18.50;;;;;;;-142.75;100.00;77859.84;5023297;28;20156;-70
2021/11/14 07:06:07;;;;;;;36.42;19.00;;;;;;;-142.75;100.00;77857.88;5039705;28;20365;-70
2021/11/14 07:08:33;;;;;;;32.80;19.17;;;;;;;-142.75;100.00;77865.75;5031185;28;20036;-70
2021/11/14 07:10:59;;;;;;;32.25;18.45;;;;;;;-142.75;100.00;77867.72;5015191;28;20024;-69
2021/11/14 07:13:24;;;;;;;36.63;18.15;;;;;;;-142.75;100.00;77883.47;5041631;28;20527;-70
2021/11/14 07:15:49;;;;;;;33.22;17.92;;;;;;;-142.75;100.00;77881.50;5037874;28;20048;-68
2021/11/14 07:18:15;;;;;;;38.97;20.25;;;;;;;-142.75;100.00;77887.41;5026013;28;20025;-69
2021/11/14 07:20:40;;;;;;;31.83;18.15;;;;;;;-142.75;100.00;77895.28;5047368;28;20505;-68
2021/11/14 07:23:06;;;;;;;32.42;18.33;;;;;;;-142.75;100.00;77897.25;5046650;28;20071;-70
2021/11/14 07:25:32;;;;;;;33.83;19.63;;;;;;;-142.75;100.00;77893.31;5041953;28;20031;-70
2021/11/14 07:27:57;;;;;;;36.35;20.17;;;;;;;-142.75;100.00;77918.94;5039617;28;20079;-70
2021/11/14 07:30:23;;;;;;;39.78;19.63;;;;;;;-142.75;100.00;77922.88;5038623;28;20083;-69
2021/11/14 07:32:50;;;;;;;38.13;20.63;;;;;;;-142.75;100.00;77905.13;5050230;28;20035;-67
2021/11/14 07:35:21;;;;;;;39.20;21.27;;;;;;;-142.75;100.00;77907.09;5027696;28;20028;-69
2021/11/14 07:37:47;;;;;;;45.60;22.10;;;;;;;-142.75;100.00;77909.06;5039489;28;20108;-68
2021/11/14 07:40:15;;;;;;;39.20;20.48;;;;;;;-142.75;100.00;77926.81;5043219;28;20104;-70
2021/11/14 07:42:44;;;;;;;44.45;22.52;;;;;;;-142.75;100.00;77909.06;5060505;22;20295;-66
2021/11/14 07:45:11;;;;;;;44.05;22.48;;;;;;;-142.75;100.00;77922.88;5030496;28;20499;-66
2021/11/14 07:47:36;;;;;;;40.45;21.65;;;;;;;-142.75;100.00;77920.91;5013243;28;20026;-66
2021/11/14 07:50:03;;;;;;;44.42;21.95;;;;;;;-142.75;100.00;77924.84;5029318;28;20033;-66
2021/11/14 07:52:30;;;;;;;44.00;22.73;;;;;;;-142.75;100.00;77920.91;5029698;28;20106;-66
2021/11/14 07:54:56;;;;;;;41.63;22.95;;;;;;;-142.75;100.00;77936.66;5029772;28;20052;-66
2021/11/14 07:57:21;;;;;;;44.05;22.83;;;;;;;-142.75;100.00;77918.94;5047062;28;20494;-66
2021/11/14 07:59:46;;;;;;;46.25;22.80;;;;;;;-142.75;100.00;77928.78;5049134;28;20017;-66
2021/11/14 08:02:12;;;;;;;42.20;22.63;;;;;;;-142.75;100.00;77932.72;5049512;28;20104;-66
2021/11/14 08:04:37;;;;;;;47.40;22.17;;;;;;;-142.75;100.00;77926.81;5049502;28;20017;-66
2021/11/14 08:07:03;;;;;;;45.45;22.10;;;;;;;-142.75;100.00;77924.84;5031708;28;20036;-66
2021/11/14 08:09:28;;;;;;;41.40;21.85;;;;;;;-142.75;100.00;77922.88;5048071;28;20033;-66
2021/11/14 08:11:53;;;;;;;41.45;22.95;;;;;;;-142.75;100.00;77936.66;5048693;28;20029;-66
2021/11/14 08:14:19;;;;;;;43.35;23.17;;;;;;;-142.75;100.00;77960.28;5049507;28;20162;-66
2021/11/14 08:16:44;;;;;;;44.40;22.67;;;;;;;-142.75;100.00;77956.34;5049649;28;20027;-66
2021/11/14 08:19:10;;;;;;;42.45;21.42;;;;;;;-142.75;100.00;77964.22;5049641;28;20027;-66
2021/11/14 08:21:36;;;;;;;44.45;22.00;;;;;;;-142.75;100.00;77952.41;5048165;28;20110;-66
2021/11/14 08:24:01;;;;;;;44.53;22.75;;;;;;;-142.75;100.00;77944.53;5049015;28;20394;-66
2021/11/14 08:26:26;;;;;;;49.53;22.70;;;;;;;-142.75;100.00;77956.34;5025536;28;20033;-66
2021/11/14 08:28:52;;;;;;;45.63;23.00;;;;;;;-142.75;100.00;77950.44;5030072;28;20104;-66
2021/11/14 08:31:20;;;;;;;50.63;23.52;;;;;;;-142.75;100.00;77940.59;5030039;28;20025;-66
2021/11/14 08:33:47;;;;;;;48.03;23.52;;;;;;;-142.75;100.00;77946.50;5029830;28;20453;-66
2021/11/14 08:36:13;;;;;;;47.75;24.35;;;;;;;-142.75;100.00;77946.50;5030327;28;20057;-66
2021/11/14 08:38:39;;;;;;;42.92;23.00;;;;;;;-142.75;100.00;77948.47;5028986;28;20119;-66
2021/11/14 08:41:04;;;;;;;47.92;22.98;;;;;;;-142.75;100.00;77956.34;5029477;28;20026;-66
2021/11/14 08:43:30;;;;;;;52.05;24.65;;;;;;;-142.75;100.00;77950.44;5030138;28;20021;-65
2021/11/14 08:45:56;;;;;;;49.78;24.88;;;;;;;-142.75;100.00;77952.41;5030121;28;20033;-66
2021/11/14 08:48:21;;;;;;;46.22;23.73;;;;;;;-142.75;100.00;77944.53;5030641;28;20026;-65
2021/11/14 08:50:48;;;;;;;46.22;22.40;;;;;;;-142.75;100.00;77940.59;5029679;28;20156;-65
2021/11/14 08:53:13;;;;;;;49.55;25.25;;;;;;;-142.75;100.00;77932.72;5030104;28;20045;-65
2021/11/14 08:55:39;;;;;;;57.60;25.55;;;;;;;-142.75;100.00;77928.78;5030126;28;20118;-65
2021/11/14 08:58:04;;;;;;;46.63;23.20;;;;;;;-142.75;100.00;77903.16;5030065;28;20024;-65
2021/11/14 09:00:31;;;;;;;47.88;23.55;;;;;;;-142.75;100.00;77899.22;5044494;28;20025;-66
2021/11/14 09:02:59;;;;;;;48.40;24.35;;;;;;;-142.75;100.00;77909.06;5028575;28;20032;-65
2021/11/14 09:05:26;;;;;;;46.25;24.23;;;;;;;-142.75;100.00;77911.06;5029880;28;20032;-66
2021/11/14 09:07:52;;;;;;;51.50;24.85;;;;;;;-142.75;100.00;77909.06;5011657;28;20171;-65
2021/11/14 09:10:18;;;;;;;;;;;;;;;-142.75;100.00;77907.09;5029793;28;20574;-66
2021/11/14 09:12:43;;;;;;;51.03;24.13;;;;;;;-142.75;100.00;77916.97;5029693;28;20000;-66
2021/11/14 09:15:10;;;;;;;52.40;25.33;;;;;;;-142.75;100.00;77909.06;5029609;28;20029;-65
2021/11/14 09:17:36;;;;;;;51.70;24.38;;;;;;;-142.75;100.00;77911.06;5030079;28;20045;-66
2021/11/14 09:20:03;;;;;;;52.85;26.02;;;;;;;-142.75;100.00;77915.00;5011467;28;20449;-66
2021/11/14 09:22:28;;;;;;;51.30;25.15;;;;;;;-142.75;100.00;77928.78;5010340;28;20090;-66
2021/11/14 09:24:54;;;;;;;53.22;25.83;;;;;;;-142.75;100.00;77934.69;5029463;28;20076;-65
2021/11/14 09:27:19;;;;;;;54.33;26.48;;;;;;;-142.75;100.00;77948.47;5012485;28;20029;-66
2021/11/14 09:29:45;;;;;;;53.85;26.50;;;;;;;-142.75;100.00;77936.66;5048339;28;20631;-65
2021/11/14 09:32:10;;;;;;;53.00;25.70;;;;;;;-142.75;100.00;77926.81;5030892;28;20486;-65
2021/11/14 09:34:35;;;;;;;51.70;26.33;;;;;;;-142.75;100.00;77932.72;5048454;28;20394;-64
2021/11/14 09:37:01;;;;;;;55.30;28.00;;;;;;;-142.75;100.00;77948.47;5048241;28;20044;-64
2021/11/14 09:39:27;;;;;;;55.83;26.85;;;;;;;-142.75;100.00;77948.47;5046850;28;20016;-64
2021/11/14 09:41:52;;;;;;;49.35;26.20;;;;;;;-142.75;100.00;77938.63;5029616;28;20025;-65
2021/11/14 09:44:20;;;;;;;51.45;26.13;;;;;;;-142.75;100.00;77952.41;5048393;28;20486;-65
2021/11/14 09:46:53;;;;;;;51.83;24.60;;;;;;;-142.75;100.00;77948.47;5048364;28;20032;-65
2021/11/14 09:49:20;;;;;;;49.10;24.88;;;;;;;-142.75;100.00;77948.47;5048881;28;20021;-65
2021/11/14 09:51:47;;;;;;;53.47;24.70;;;;;;;-142.75;100.00;77920.91;5047557;28;20021;-65
2021/11/14 09:54:13;;;;;;;47.42;25.17;;;;;;;-142.75;100.00;77932.72;5046443;28;20103;-66
2021/11/14 09:56:38;;;;;;;52.47;25.77;;;;;;;-142.75;100.00;77905.13;5048048;28;20112;-65
2021/11/14 09:59:04;;;;;;;51.08;26.13;;;;;;;-142.75;100.00;77911.06;5048075;28;20020;-65
2021/11/14 10:01:29;;;;;;;53.50;24.80;;;;;;;-142.75;100.00;77926.81;5029571;28;20563;-66
2021/11/14 10:03:54;;;;;;;47.75;24.50;;;;;;;-142.75;100.00;77899.22;5048040;28;20108;-65
2021/11/14 10:06:21;;;;;;;51.97;25.88;;;;;;;-142.75;100.00;77913.03;5047624;28;20029;-66
2021/11/14 10:08:48;;;;;;;49.83;24.50;;;;;;;-142.75;100.00;77924.84;5047866;28;20032;-65
2021/11/14 10:11:13;;;;;;;44.40;22.77;;;;;;;-142.75;100.00;77954.38;5047449;28;20025;-66
2021/11/14 10:13:45;;;;;;;45.97;23.85;;;;;;;-142.75;100.00;77940.59;5047738;28;20490;-65
2021/11/14 10:16:13;;;;;;;43.95;22.83;;;;;;;-142.75;100.00;77942.56;5047725;28;20025;-66
2021/11/14 10:18:45;;;;;;;42.38;22.27;;;;;;;-142.75;100.00;77940.59;5046342;28;20051;-65
2021/11/14 10:21:10;;;;;;;41.45;21.70;;;;;;;-142.75;100.00;77938.63;5046670;28;20032;-65
2021/11/14 10:23:37;;;;;;;43.10;23.08;;;;;;;-142.75;100.00;77913.03;5047547;28;20482;-66
2021/11/14 10:26:10;;;;;;;45.90;22.83;;;;;;;-142.75;100.00;77901.19;5047472;28;20168;-65
2021/11/14 10:28:38;;;;;;;41.63;22.92;;;;;;;-142.75;100.00;77891.34;5047137;28;20029;-65
2021/11/14 10:31:04;;;;;;;42.35;21.20;;;;;;;-142.75;100.00;77913.03;5046719;28;20494;-65
2021/11/14 10:33:30;;;;;;;49.00;24.20;;;;;;;-142.75;100.00;77905.13;5047271;28;20029;-65
2021/11/14 10:35:57;;;;;;;44.47;23.40;;;;;;;-142.75;100.00;77897.25;5041266;28;20040;-65
2021/11/14 10:38:26;;;;;;;45.40;22.65;;;;;;;-142.75;100.00;77885.44;5026823;28;20100;-65
2021/11/14 10:40:58;;;;;;;44.17;22.25;;;;;;;-142.75;100.00;77915.00;5025384;28;20048;-65
2021/11/14 10:43:25;;;;;;;44.95;23.27;;;;;;;-142.75;100.00;77913.03;5026140;28;20021;-65
2021/11/14 10:45:52;;;;;;;42.92;22.95;;;;;;;-142.75;100.00;77930.75;5026156;28;20013;-66
2021/11/14 10:48:20;;;;;;;43.45;22.58;;;;;;;-142.75;100.00;77928.78;5026843;28;20025;-66
2021/11/14 10:50:50;;;;;;;45.92;21.92;;;;;;;-142.75;100.00;77932.72;5025439;28;20188;-66